• Join FlightAware (Why Join?)
  • Login
  • US Flag 
Rudolph Flight #1: Arrived! 
12:57AM EST


 

Airport Tracker/Info


-or-


 

Live Flight TrackerFlight Track Log ✈ UCA3599 ✈ 13-Sep-2013 ✈ KBGM - KIAD

Flight Track Log - Related Links

Times and Time Zones

All times are in EDT time to prevent confusion due to time zone crossing. See the UCA3599 flight status page for this flight to view local times or setup timezone preferences in your user account.

Time Position Orientation Groundspeed Altitude Reporting Facility
EDT Latitude Longitude Course Direction KTS MPH feet Rate Location/Type
06:08AM 42.2433 -76.0481 216° Southwest 147 169 3,900  Level New York Center
06:09AM 42.2042 -76.0869 216° Southwest 142 163 5,200 1,320 Climbing New York Center
06:10AM 42.1567 -76.1222 209° Southwest 163 188 6,600 1,200 Climbing New York Center
06:11AM 42.1111 -76.1661 216° Southwest 184 212 7,700 1,080 Climbing New York Center
06:12AM 42.0617 -76.2011 208° Southwest 198 228 8,800 1,020 Climbing New York Center
06:13AM 42.0117 -76.2444 213° Southwest 217 250 9,800 1,020 Climbing New York Center
06:14AM 41.9642 -76.2797 209° Southwest 217 250 10,900 1,260 Climbing New York Center
06:15AM 41.9100 -76.3253 212° Southwest 217 250 12,400 1,260 Climbing New York Center
06:16AM 41.8622 -76.3658 212° Southwest 217 250 13,500 1,020 Climbing New York Center
06:17AM 41.8125 -76.4061 211° Southwest 211 243 14,500 1,020 Climbing New York Center
06:18AM 41.7672 -76.4414 210° Southwest 216 249 15,600 720 Climbing New York Center
06:19AM 41.7153 -76.4786 208° Southwest 216 249 16,000 180 Climbing New York Center
06:20AM 41.6547 -76.5289 212° Southwest 232 267 16,000  Level New York Center
06:21AM 41.5961 -76.5739 210° Southwest 247 284 16,000  Level New York Center
06:22AM 41.5356 -76.6214 210° Southwest 252 290 16,000  Level New York Center
06:23AM 41.4817 -76.6608 209° Southwest 252 290 16,000  Level New York Center
06:24AM 41.4186 -76.7133 212° Southwest 257 296 16,000  Level New York Center
06:25AM 41.3600 -76.7608 211° Southwest 257 296 16,000 -60 Level New York Center
06:26AM 41.2981 -76.7886 199° South 252 290 15,900  Descending New York Center
06:27AM 41.2286 -76.8017 188° South 252 290 16,000  Climbing New York Center
06:28AM 41.1572 -76.8144 188° South 252 290 16,000  Level New York Center
06:29AM 41.0878 -76.8275 188° South 257 296 16,000 -60 Level New York Center
06:30AM 41.0183 -76.8406 188° South 257 296 15,900 -60 Descending New York Center
06:31AM 40.9508 -76.8539 188° South 257 296 15,900  Level New York Center
06:32AM 40.8814 -76.8669 188° South 257 296 16,000  Climbing New York Center
06:33AM 40.8183 -76.8778 187° South 257 296 16,000  Level New York Center
06:34AM 40.7464 -76.8989 193° South 252 290 16,000  Level New York Center
06:35AM 40.6872 -76.9181 194° South 252 290 16,000  Level New York Center
06:36AM 40.6131 -76.9417 194° South 246 283 16,000  Level New York Center
06:37AM 40.5536 -76.9608 194° South 246 283 16,000  Level New York Center
06:38AM 40.4817 -76.9817 192° South 240 276 16,000  Level New York Center
06:39AM 40.4203 -77.0006 193° South 240 276 16,000 -480 Level New York Center
06:40AM 40.3439 -77.0236 193° South 250 288 15,100 -960 Descending New York Center
06:42AM 40.1667 -77.0833 194° South 270 311 12,700 -1,020 Descending Potomac TRACON
06:43AM 40.1000 -77.1000 191° South 265 305 11,800 -900 Descending Potomac TRACON
06:44AM 40.0333 -77.1167 191° South 262 302 11,100 -540 Descending Potomac TRACON
06:45AM 39.9667 -77.1333 191° South 244 281 10,800 -720 Descending Potomac TRACON
06:46AM 39.9000 -77.1667 201° Southwest 271 312 9,800 -1,080 Descending Potomac TRACON
06:47AM 39.8333 -77.2000 201° Southwest 265 305 8,700 -1,080 Descending Potomac TRACON
06:48AM 39.7667 -77.2167 191° South 272 313 7,800 -960 Descending Potomac TRACON
06:49AM 39.6833 -77.2500 197° South 260 299 6,900 -480 Descending Potomac TRACON
06:50AM 39.6333 -77.2667 194° South 250 288 6,900  Level Potomac TRACON
06:51AM 39.5667 -77.3000 201° Southwest 244 281 6,900 -240 Level Potomac TRACON
06:52AM 39.5167 -77.3167 194° South 256 295 6,500 -480 Descending Potomac TRACON
06:53AM 39.4333 -77.3500 197° South 260 299 6,000 -300 Descending Potomac TRACON
06:54AM 39.3667 -77.3667 191° South 257 296 6,000 -240 Level Potomac TRACON
06:55AM 39.3000 -77.3667 180° South 266 306 5,600 -600 Descending Potomac TRACON
06:56AM 39.2333 -77.3667 180° South 270 311 5,000 -660 Descending Potomac TRACON
06:57AM 39.1500 -77.3667 180° South 268 308 4,300 -480 Descending Potomac TRACON
06:58AM 39.0833 -77.3500 169° South 266 306 4,000 -180 Descending Potomac TRACON
06:59AM 39.0167 -77.3667 191° South 264 304 4,000  Level Potomac TRACON
07:00AM 38.9500 -77.3500 169° South 269 310 4,000 -240 Level Potomac TRACON
07:01AM 38.8667 -77.3667 189° South 255 293 3,600 -780 Descending Potomac TRACON
07:02AM 38.8167 -77.4000 207° Southwest 238 274 2,500 -900 Descending Potomac TRACON
07:03AM 38.8500 -77.4333 322° Northwest 152 175 1,900 -660 Descending Potomac TRACON
07:04AM 38.8833 -77.4333 360° North 108 124 1,200 -660 Descending Potomac TRACON
07:05AM 38.9167 -77.4333 360° North 104 120 600 -600 Descending Potomac TRACON